sensor_id;sensor_type;location;lat;lon;timestamp;P1;durP1;ratioP1;P2;durP2;ratioP2
57443;SDS011;43289;52.962;6.196;2022-07-18T00:02:17;3.90;;;2.58;;
57443;SDS011;43289;52.962;6.196;2022-07-18T00:04:43;2.95;;;1.67;;
57443;SDS011;43289;52.962;6.196;2022-07-18T00:07:09;3.67;;;2.10;;
57443;SDS011;43289;52.962;6.196;2022-07-18T00:09:38;5.07;;;3.50;;
57443;SDS011;43289;52.962;6.196;2022-07-18T00:12:05;5.22;;;3.28;;
57443;SDS011;43289;52.962;6.196;2022-07-18T00:14:32;5.60;;;3.60;;
57443;SDS011;43289;52.962;6.196;2022-07-18T00:17:11;5.95;;;3.75;;
57443;SDS011;43289;52.962;6.196;2022-07-18T00:19:37;6.10;;;3.70;;
57443;SDS011;43289;52.962;6.196;2022-07-18T00:22:03;6.50;;;4.90;;
57443;SDS011;43289;52.962;6.196;2022-07-18T00:24:29;6.53;;;4.18;;
57443;SDS011;43289;52.962;6.196;2022-07-18T00:26:57;7.00;;;4.30;;
57443;SDS011;43289;52.962;6.196;2022-07-18T00:29:23;5.68;;;4.10;;
57443;SDS011;43289;52.962;6.196;2022-07-18T00:31:50;5.28;;;3.65;;
57443;SDS011;43289;52.962;6.196;2022-07-18T00:34:15;8.20;;;4.20;;
57443;SDS011;43289;52.962;6.196;2022-07-18T00:36:41;6.95;;;5.05;;
57443;SDS011;43289;52.962;6.196;2022-07-18T00:39:07;6.28;;;4.32;;
57443;SDS011;43289;52.962;6.196;2022-07-18T00:41:33;6.10;;;3.60;;
57443;SDS011;43289;52.962;6.196;2022-07-18T00:43:58;7.18;;;3.90;;
57443;SDS011;43289;52.962;6.196;2022-07-18T00:46:24;6.00;;;4.45;;
57443;SDS011;43289;52.962;6.196;2022-07-18T00:48:51;6.95;;;4.45;;
57443;SDS011;43289;52.962;6.196;2022-07-18T00:51:17;6.63;;;4.35;;
57443;SDS011;43289;52.962;6.196;2022-07-18T00:53:44;6.18;;;4.30;;
57443;SDS011;43289;52.962;6.196;2022-07-18T00:56:11;7.20;;;4.30;;
57443;SDS011;43289;52.962;6.196;2022-07-18T00:58:38;6.18;;;4.05;;
57443;SDS011;43289;52.962;6.196;2022-07-18T01:01:04;6.55;;;4.00;;
57443;SDS011;43289;52.962;6.196;2022-07-18T01:03:48;5.13;;;3.30;;
57443;SDS011;43289;52.962;6.196;2022-07-18T01:06:14;5.60;;;2.95;;
57443;SDS011;43289;52.962;6.196;2022-07-18T01:08:41;6.72;;;4.80;;
57443;SDS011;43289;52.962;6.196;2022-07-18T01:11:08;6.43;;;4.78;;
57443;SDS011;43289;52.962;6.196;2022-07-18T01:13:35;8.80;;;5.85;;
57443;SDS011;43289;52.962;6.196;2022-07-18T01:18:51;7.55;;;4.72;;
57443;SDS011;43289;52.962;6.196;2022-07-18T01:21:17;5.10;;;3.70;;
57443;SDS011;43289;52.962;6.196;2022-07-18T01:23:43;7.00;;;4.53;;
57443;SDS011;43289;52.962;6.196;2022-07-18T01:26:09;8.82;;;5.50;;
57443;SDS011;43289;52.962;6.196;2022-07-18T01:28:37;8.02;;;5.90;;
57443;SDS011;43289;52.962;6.196;2022-07-18T01:31:02;7.38;;;5.18;;
57443;SDS011;43289;52.962;6.196;2022-07-18T01:33:30;6.00;;;4.05;;
57443;SDS011;43289;52.962;6.196;2022-07-18T01:35:57;7.07;;;4.55;;
57443;SDS011;43289;52.962;6.196;2022-07-18T01:38:24;7.85;;;5.65;;
57443;SDS011;43289;52.962;6.196;2022-07-18T01:40:50;9.77;;;5.40;;
57443;SDS011;43289;52.962;6.196;2022-07-18T01:43:28;6.85;;;4.97;;
57443;SDS011;43289;52.962;6.196;2022-07-18T01:45:54;9.52;;;6.00;;
57443;SDS011;43289;52.962;6.196;2022-07-18T01:48:20;8.20;;;5.20;;
57443;SDS011;43289;52.962;6.196;2022-07-18T01:50:48;8.50;;;5.85;;
57443;SDS011;43289;52.962;6.196;2022-07-18T01:53:14;9.88;;;5.85;;
57443;SDS011;43289;52.962;6.196;2022-07-18T01:55:40;11.13;;;5.97;;
57443;SDS011;43289;52.962;6.196;2022-07-18T02:00:59;10.80;;;5.65;;
57443;SDS011;43289;52.962;6.196;2022-07-18T02:03:25;9.45;;;5.80;;
57443;SDS011;43289;52.962;6.196;2022-07-18T02:05:51;10.82;;;6.05;;
57443;SDS011;43289;52.962;6.196;2022-07-18T02:08:17;8.57;;;5.55;;
57443;SDS011;43289;52.962;6.196;2022-07-18T02:13:56;8.07;;;4.93;;
57443;SDS011;43289;52.962;6.196;2022-07-18T02:16:23;7.95;;;5.00;;
57443;SDS011;43289;52.962;6.196;2022-07-18T02:18:49;8.55;;;5.32;;
57443;SDS011;43289;52.962;6.196;2022-07-18T02:21:15;10.50;;;5.82;;
57443;SDS011;43289;52.962;6.196;2022-07-18T02:23:41;7.25;;;5.13;;
57443;SDS011;43289;52.962;6.196;2022-07-18T02:26:07;8.00;;;5.85;;
57443;SDS011;43289;52.962;6.196;2022-07-18T02:28:33;9.88;;;5.65;;
57443;SDS011;43289;52.962;6.196;2022-07-18T02:31:00;10.00;;;6.00;;
57443;SDS011;43289;52.962;6.196;2022-07-18T02:33:26;9.07;;;5.95;;
57443;SDS011;43289;52.962;6.196;2022-07-18T02:35:52;7.90;;;5.15;;
57443;SDS011;43289;52.962;6.196;2022-07-18T02:38:18;8.27;;;5.85;;
57443;SDS011;43289;52.962;6.196;2022-07-18T02:40:44;7.30;;;5.03;;
57443;SDS011;43289;52.962;6.196;2022-07-18T02:43:10;6.40;;;4.65;;
57443;SDS011;43289;52.962;6.196;2022-07-18T02:48:25;6.50;;;4.57;;
57443;SDS011;43289;52.962;6.196;2022-07-18T02:50:50;7.47;;;4.72;;
57443;SDS011;43289;52.962;6.196;2022-07-18T02:56:14;9.18;;;6.22;;
57443;SDS011;43289;52.962;6.196;2022-07-18T02:58:40;9.05;;;5.78;;
57443;SDS011;43289;52.962;6.196;2022-07-18T03:04:04;8.35;;;5.10;;
57443;SDS011;43289;52.962;6.196;2022-07-18T03:06:30;9.02;;;5.60;;
57443;SDS011;43289;52.962;6.196;2022-07-18T03:11:52;7.80;;;5.03;;
57443;SDS011;43289;52.962;6.196;2022-07-18T03:14:19;8.90;;;6.47;;
57443;SDS011;43289;52.962;6.196;2022-07-18T03:16:45;9.02;;;6.38;;
57443;SDS011;43289;52.962;6.196;2022-07-18T03:19:11;8.77;;;6.13;;
57443;SDS011;43289;52.962;6.196;2022-07-18T03:21:37;9.98;;;6.00;;
57443;SDS011;43289;52.962;6.196;2022-07-18T03:24:03;6.25;;;4.13;;
57443;SDS011;43289;52.962;6.196;2022-07-18T03:26:29;9.65;;;5.75;;
57443;SDS011;43289;52.962;6.196;2022-07-18T03:28:55;8.60;;;5.65;;
57443;SDS011;43289;52.962;6.196;2022-07-18T03:31:37;8.98;;;5.93;;
57443;SDS011;43289;52.962;6.196;2022-07-18T03:34:03;10.45;;;5.95;;
57443;SDS011;43289;52.962;6.196;2022-07-18T03:36:29;8.90;;;5.68;;
57443;SDS011;43289;52.962;6.196;2022-07-18T03:38:55;8.07;;;5.65;;
57443;SDS011;43289;52.962;6.196;2022-07-18T03:41:21;8.55;;;5.72;;
57443;SDS011;43289;52.962;6.196;2022-07-18T03:43:47;9.52;;;6.88;;
57443;SDS011;43289;52.962;6.196;2022-07-18T03:46:13;10.85;;;6.70;;
57443;SDS011;43289;52.962;6.196;2022-07-18T03:48:39;10.38;;;7.00;;
57443;SDS011;43289;52.962;6.196;2022-07-18T03:51:05;12.90;;;7.60;;
57443;SDS011;43289;52.962;6.196;2022-07-18T03:53:32;8.40;;;6.60;;
57443;SDS011;43289;52.962;6.196;2022-07-18T03:55:58;10.63;;;6.97;;
57443;SDS011;43289;52.962;6.196;2022-07-18T03:58:24;9.68;;;7.00;;
57443;SDS011;43289;52.962;6.196;2022-07-18T04:03:55;10.48;;;6.88;;
57443;SDS011;43289;52.962;6.196;2022-07-18T04:06:21;14.75;;;7.35;;
57443;SDS011;43289;52.962;6.196;2022-07-18T04:08:47;12.07;;;6.55;;
57443;SDS011;43289;52.962;6.196;2022-07-18T04:11:13;10.88;;;7.13;;
57443;SDS011;43289;52.962;6.196;2022-07-18T04:17:02;17.60;;;8.57;;
57443;SDS011;43289;52.962;6.196;2022-07-18T04:19:28;16.38;;;8.95;;
57443;SDS011;43289;52.962;6.196;2022-07-18T04:21:54;11.23;;;7.10;;
57443;SDS011;43289;52.962;6.196;2022-07-18T04:24:20;13.73;;;7.13;;
57443;SDS011;43289;52.962;6.196;2022-07-18T04:26:46;11.70;;;6.75;;
57443;SDS011;43289;52.962;6.196;2022-07-18T04:29:12;9.50;;;6.60;;
57443;SDS011;43289;52.962;6.196;2022-07-18T04:31:51;11.25;;;6.78;;
57443;SDS011;43289;52.962;6.196;2022-07-18T04:34:17;10.38;;;7.13;;
57443;SDS011;43289;52.962;6.196;2022-07-18T04:36:43;11.57;;;7.47;;
57443;SDS011;43289;52.962;6.196;2022-07-18T04:41:59;10.88;;;7.07;;
57443;SDS011;43289;52.962;6.196;2022-07-18T04:44:25;10.93;;;6.47;;
57443;SDS011;43289;52.962;6.196;2022-07-18T04:46:51;14.00;;;6.65;;
57443;SDS011;43289;52.962;6.196;2022-07-18T04:49:16;12.10;;;6.20;;
57443;SDS011;43289;52.962;6.196;2022-07-18T04:51:42;9.88;;;6.03;;
57443;SDS011;43289;52.962;6.196;2022-07-18T04:54:08;10.57;;;6.05;;
57443;SDS011;43289;52.962;6.196;2022-07-18T04:56:37;13.95;;;7.35;;
57443;SDS011;43289;52.962;6.196;2022-07-18T04:59:03;14.52;;;6.40;;
57443;SDS011;43289;52.962;6.196;2022-07-18T05:01:33;9.85;;;6.32;;
57443;SDS011;43289;52.962;6.196;2022-07-18T05:04:00;9.73;;;6.63;;
57443;SDS011;43289;52.962;6.196;2022-07-18T05:06:26;8.82;;;6.07;;
57443;SDS011;43289;52.962;6.196;2022-07-18T05:11:39;8.60;;;5.68;;
57443;SDS011;43289;52.962;6.196;2022-07-18T05:14:05;8.88;;;5.70;;
57443;SDS011;43289;52.962;6.196;2022-07-18T05:16:30;10.35;;;5.90;;
57443;SDS011;43289;52.962;6.196;2022-07-18T05:18:56;9.43;;;6.72;;
57443;SDS011;43289;52.962;6.196;2022-07-18T05:21:22;11.15;;;5.80;;
57443;SDS011;43289;52.962;6.196;2022-07-18T05:23:47;7.90;;;5.60;;
57443;SDS011;43289;52.962;6.196;2022-07-18T05:26:13;9.40;;;5.80;;
57443;SDS011;43289;52.962;6.196;2022-07-18T05:28:39;9.77;;;5.82;;
57443;SDS011;43289;52.962;6.196;2022-07-18T05:31:05;8.75;;;5.50;;
57443;SDS011;43289;52.962;6.196;2022-07-18T05:33:31;11.52;;;5.40;;
57443;SDS011;43289;52.962;6.196;2022-07-18T05:35:57;9.55;;;5.78;;
57443;SDS011;43289;52.962;6.196;2022-07-18T05:38:25;8.07;;;5.43;;
57443;SDS011;43289;52.962;6.196;2022-07-18T05:40:50;10.63;;;5.68;;
57443;SDS011;43289;52.962;6.196;2022-07-18T05:43:16;9.43;;;5.97;;
57443;SDS011;43289;52.962;6.196;2022-07-18T05:45:43;10.45;;;5.78;;
57443;SDS011;43289;52.962;6.196;2022-07-18T05:48:09;7.25;;;4.75;;
57443;SDS011;43289;52.962;6.196;2022-07-18T05:50:35;9.25;;;5.05;;
57443;SDS011;43289;52.962;6.196;2022-07-18T05:53:01;7.30;;;4.45;;
57443;SDS011;43289;52.962;6.196;2022-07-18T05:58:22;10.05;;;4.85;;
57443;SDS011;43289;52.962;6.196;2022-07-18T06:03:46;11.27;;;5.03;;
57443;SDS011;43289;52.962;6.196;2022-07-18T06:06:12;7.97;;;4.55;;
57443;SDS011;43289;52.962;6.196;2022-07-18T06:08:38;9.15;;;5.00;;
57443;SDS011;43289;52.962;6.196;2022-07-18T06:11:05;8.18;;;5.22;;
57443;SDS011;43289;52.962;6.196;2022-07-18T06:13:33;7.47;;;4.38;;
57443;SDS011;43289;52.962;6.196;2022-07-18T06:19:21;7.45;;;4.35;;
57443;SDS011;43289;52.962;6.196;2022-07-18T06:21:47;7.57;;;4.72;;
57443;SDS011;43289;52.962;6.196;2022-07-18T06:24:15;12.10;;;4.25;;
57443;SDS011;43289;52.962;6.196;2022-07-18T06:26:41;7.70;;;3.72;;
57443;SDS011;43289;52.962;6.196;2022-07-18T06:29:07;12.68;;;5.03;;
57443;SDS011;43289;52.962;6.196;2022-07-18T06:31:33;8.20;;;3.83;;
57443;SDS011;43289;52.962;6.196;2022-07-18T06:33:58;11.07;;;3.95;;
57443;SDS011;43289;52.962;6.196;2022-07-18T06:36:24;6.65;;;4.32;;
57443;SDS011;43289;52.962;6.196;2022-07-18T06:38:50;6.38;;;3.92;;
57443;SDS011;43289;52.962;6.196;2022-07-18T06:41:17;6.93;;;4.05;;
57443;SDS011;43289;52.962;6.196;2022-07-18T06:43:43;7.20;;;3.80;;
57443;SDS011;43289;52.962;6.196;2022-07-18T06:46:09;6.85;;;3.83;;
57443;SDS011;43289;52.962;6.196;2022-07-18T06:48:40;6.63;;;3.60;;
57443;SDS011;43289;52.962;6.196;2022-07-18T06:51:06;6.93;;;3.75;;
57443;SDS011;43289;52.962;6.196;2022-07-18T06:53:33;6.28;;;3.60;;
57443;SDS011;43289;52.962;6.196;2022-07-18T06:56:01;6.55;;;3.60;;
57443;SDS011;43289;52.962;6.196;2022-07-18T06:58:30;6.90;;;3.38;;
57443;SDS011;43289;52.962;6.196;2022-07-18T07:00:56;6.05;;;3.42;;
57443;SDS011;43289;52.962;6.196;2022-07-18T07:03:33;6.15;;;3.63;;
57443;SDS011;43289;52.962;6.196;2022-07-18T07:05:58;6.20;;;3.17;;
57443;SDS011;43289;52.962;6.196;2022-07-18T07:08:24;7.60;;;3.35;;
57443;SDS011;43289;52.962;6.196;2022-07-18T07:10:49;9.32;;;3.45;;
57443;SDS011;43289;52.962;6.196;2022-07-18T07:13:15;11.40;;;3.83;;
57443;SDS011;43289;52.962;6.196;2022-07-18T07:15:40;7.93;;;3.63;;
57443;SDS011;43289;52.962;6.196;2022-07-18T07:23:19;7.38;;;3.42;;
57443;SDS011;43289;52.962;6.196;2022-07-18T07:25:44;8.73;;;4.60;;
57443;SDS011;43289;52.962;6.196;2022-07-18T07:28:10;7.13;;;3.00;;
57443;SDS011;43289;52.962;6.196;2022-07-18T07:30:35;8.60;;;3.05;;
57443;SDS011;43289;52.962;6.196;2022-07-18T07:33:10;6.97;;;2.95;;
57443;SDS011;43289;52.962;6.196;2022-07-18T07:35:36;6.65;;;2.78;;
57443;SDS011;43289;52.962;6.196;2022-07-18T07:38:02;8.20;;;3.10;;
57443;SDS011;43289;52.962;6.196;2022-07-18T07:40:28;5.60;;;3.08;;
57443;SDS011;43289;52.962;6.196;2022-07-18T07:43:05;5.05;;;3.20;;
57443;SDS011;43289;52.962;6.196;2022-07-18T07:45:35;8.40;;;3.47;;
57443;SDS011;43289;52.962;6.196;2022-07-18T07:48:01;7.43;;;2.83;;
57443;SDS011;43289;52.962;6.196;2022-07-18T07:50:27;8.20;;;3.17;;
57443;SDS011;43289;52.962;6.196;2022-07-18T07:53:03;9.68;;;3.10;;
57443;SDS011;43289;52.962;6.196;2022-07-18T07:55:29;6.80;;;3.10;;
57443;SDS011;43289;52.962;6.196;2022-07-18T07:57:55;7.05;;;2.80;;
57443;SDS011;43289;52.962;6.196;2022-07-18T08:00:24;7.40;;;2.97;;
57443;SDS011;43289;52.962;6.196;2022-07-18T08:05:19;6.60;;;2.83;;
57443;SDS011;43289;52.962;6.196;2022-07-18T08:07:44;6.47;;;2.58;;
57443;SDS011;43289;52.962;6.196;2022-07-18T08:10:10;8.43;;;2.60;;
57443;SDS011;43289;52.962;6.196;2022-07-18T08:12:36;8.20;;;2.63;;
57443;SDS011;43289;52.962;6.196;2022-07-18T08:15:02;9.30;;;2.78;;
57443;SDS011;43289;52.962;6.196;2022-07-18T08:17:28;6.63;;;2.40;;
57443;SDS011;43289;52.962;6.196;2022-07-18T08:19:53;8.10;;;2.42;;
57443;SDS011;43289;52.962;6.196;2022-07-18T08:22:19;6.35;;;2.92;;
57443;SDS011;43289;52.962;6.196;2022-07-18T08:24:47;5.70;;;2.58;;
57443;SDS011;43289;52.962;6.196;2022-07-18T08:27:12;6.20;;;2.00;;
57443;SDS011;43289;52.962;6.196;2022-07-18T08:29:38;7.07;;;2.08;;
57443;SDS011;43289;52.962;6.196;2022-07-18T08:32:04;4.45;;;2.15;;
57443;SDS011;43289;52.962;6.196;2022-07-18T08:34:30;5.82;;;2.47;;
57443;SDS011;43289;52.962;6.196;2022-07-18T08:36:56;8.40;;;2.38;;
57443;SDS011;43289;52.962;6.196;2022-07-18T08:39:22;5.75;;;2.20;;
57443;SDS011;43289;52.962;6.196;2022-07-18T08:41:47;5.38;;;2.33;;
57443;SDS011;43289;52.962;6.196;2022-07-18T08:44:16;4.15;;;2.40;;
57443;SDS011;43289;52.962;6.196;2022-07-18T08:46:43;6.90;;;2.10;;
57443;SDS011;43289;52.962;6.196;2022-07-18T08:49:14;4.70;;;2.03;;
57443;SDS011;43289;52.962;6.196;2022-07-18T08:51:59;8.13;;;2.78;;
57443;SDS011;43289;52.962;6.196;2022-07-18T08:54:24;9.30;;;3.22;;
57443;SDS011;43289;52.962;6.196;2022-07-18T08:56:50;5.18;;;2.00;;
57443;SDS011;43289;52.962;6.196;2022-07-18T09:02:23;6.45;;;2.50;;
57443;SDS011;43289;52.962;6.196;2022-07-18T09:04:49;3.08;;;1.63;;
57443;SDS011;43289;52.962;6.196;2022-07-18T09:07:22;5.80;;;1.80;;
57443;SDS011;43289;52.962;6.196;2022-07-18T09:09:53;4.18;;;2.00;;
57443;SDS011;43289;52.962;6.196;2022-07-18T09:12:20;5.60;;;2.63;;
57443;SDS011;43289;52.962;6.196;2022-07-18T09:14:46;7.63;;;1.98;;
57443;SDS011;43289;52.962;6.196;2022-07-18T09:17:13;6.57;;;1.92;;
57443;SDS011;43289;52.962;6.196;2022-07-18T09:19:40;3.95;;;1.70;;
57443;SDS011;43289;52.962;6.196;2022-07-18T09:22:20;4.63;;;2.00;;
57443;SDS011;43289;52.962;6.196;2022-07-18T09:24:50;6.50;;;2.03;;
57443;SDS011;43289;52.962;6.196;2022-07-18T09:29:53;5.38;;;2.17;;
57443;SDS011;43289;52.962;6.196;2022-07-18T09:32:30;4.68;;;2.20;;
57443;SDS011;43289;52.962;6.196;2022-07-18T09:34:56;4.43;;;1.90;;
57443;SDS011;43289;52.962;6.196;2022-07-18T09:37:29;5.93;;;2.25;;
57443;SDS011;43289;52.962;6.196;2022-07-18T09:40:05;5.43;;;2.10;;
57443;SDS011;43289;52.962;6.196;2022-07-18T09:42:39;7.38;;;2.22;;
57443;SDS011;43289;52.962;6.196;2022-07-18T09:45:05;4.72;;;2.22;;
57443;SDS011;43289;52.962;6.196;2022-07-18T09:47:31;5.72;;;2.80;;
57443;SDS011;43289;52.962;6.196;2022-07-18T09:49:57;4.40;;;2.00;;
57443;SDS011;43289;52.962;6.196;2022-07-18T09:52:23;5.10;;;2.25;;
57443;SDS011;43289;52.962;6.196;2022-07-18T09:54:49;7.57;;;1.88;;
57443;SDS011;43289;52.962;6.196;2022-07-18T09:57:26;4.88;;;2.08;;
57443;SDS011;43289;52.962;6.196;2022-07-18T09:59:52;6.00;;;2.20;;
57443;SDS011;43289;52.962;6.196;2022-07-18T10:02:18;6.38;;;2.80;;
57443;SDS011;43289;52.962;6.196;2022-07-18T10:04:44;8.45;;;2.38;;
57443;SDS011;43289;52.962;6.196;2022-07-18T10:07:11;6.15;;;2.13;;
57443;SDS011;43289;52.962;6.196;2022-07-18T10:09:47;8.07;;;2.45;;
57443;SDS011;43289;52.962;6.196;2022-07-18T10:12:17;4.97;;;2.10;;
57443;SDS011;43289;52.962;6.196;2022-07-18T10:14:43;6.82;;;2.70;;
57443;SDS011;43289;52.962;6.196;2022-07-18T10:17:09;4.55;;;2.33;;
57443;SDS011;43289;52.962;6.196;2022-07-18T10:19:35;4.68;;;2.40;;
57443;SDS011;43289;52.962;6.196;2022-07-18T10:22:01;4.95;;;2.30;;
57443;SDS011;43289;52.962;6.196;2022-07-18T10:24:27;5.10;;;2.60;;
57443;SDS011;43289;52.962;6.196;2022-07-18T10:30:14;5.07;;;2.55;;
57443;SDS011;43289;52.962;6.196;2022-07-18T10:32:41;5.32;;;2.25;;
57443;SDS011;43289;52.962;6.196;2022-07-18T10:35:08;7.53;;;2.58;;
57443;SDS011;43289;52.962;6.196;2022-07-18T10:37:37;6.28;;;2.75;;
57443;SDS011;43289;52.962;6.196;2022-07-18T10:40:23;6.50;;;2.72;;
57443;SDS011;43289;52.962;6.196;2022-07-18T10:49:14;9.18;;;2.40;;
57443;SDS011;43289;52.962;6.196;2022-07-18T10:51:40;5.93;;;2.45;;
57443;SDS011;43289;52.962;6.196;2022-07-18T10:54:06;5.68;;;2.70;;
57443;SDS011;43289;52.962;6.196;2022-07-18T11:01:53;5.00;;;2.50;;
57443;SDS011;43289;52.962;6.196;2022-07-18T11:04:37;3.50;;;2.40;;
57443;SDS011;43289;52.962;6.196;2022-07-18T11:20:28;5.75;;;3.08;;
57443;SDS011;43289;52.962;6.196;2022-07-18T11:22:54;6.10;;;2.53;;
57443;SDS011;43289;52.962;6.196;2022-07-18T11:25:23;6.93;;;2.70;;
57443;SDS011;43289;52.962;6.196;2022-07-18T11:27:51;5.95;;;3.03;;
57443;SDS011;43289;52.962;6.196;2022-07-18T11:30:20;5.10;;;3.05;;
57443;SDS011;43289;52.962;6.196;2022-07-18T11:36:34;4.20;;;2.40;;
57443;SDS011;43289;52.962;6.196;2022-07-18T11:39:04;7.07;;;3.17;;
57443;SDS011;43289;52.962;6.196;2022-07-18T11:41:30;5.80;;;3.20;;
57443;SDS011;43289;52.962;6.196;2022-07-18T11:43:56;5.72;;;3.05;;
57443;SDS011;43289;52.962;6.196;2022-07-18T11:49:41;5.53;;;2.67;;
57443;SDS011;43289;52.962;6.196;2022-07-18T11:52:19;5.57;;;2.50;;
57443;SDS011;43289;52.962;6.196;2022-07-18T11:54:45;7.53;;;2.90;;
57443;SDS011;43289;52.962;6.196;2022-07-18T11:57:10;8.13;;;3.63;;
57443;SDS011;43289;52.962;6.196;2022-07-18T11:59:37;3.78;;;2.33;;
57443;SDS011;43289;52.962;6.196;2022-07-18T12:02:07;5.97;;;3.38;;
57443;SDS011;43289;52.962;6.196;2022-07-18T12:04:33;3.88;;;2.53;;
57443;SDS011;43289;52.962;6.196;2022-07-18T12:07:11;4.22;;;2.90;;
57443;SDS011;43289;52.962;6.196;2022-07-18T12:09:54;5.07;;;3.00;;
57443;SDS011;43289;52.962;6.196;2022-07-18T12:12:21;5.93;;;2.80;;
57443;SDS011;43289;52.962;6.196;2022-07-18T12:14:58;5.82;;;2.78;;
57443;SDS011;43289;52.962;6.196;2022-07-18T12:17:24;6.47;;;3.25;;
57443;SDS011;43289;52.962;6.196;2022-07-18T12:19:51;7.03;;;3.08;;
57443;SDS011;43289;52.962;6.196;2022-07-18T12:22:16;4.28;;;2.70;;
57443;SDS011;43289;52.962;6.196;2022-07-18T12:24:52;5.22;;;2.65;;
57443;SDS011;43289;52.962;6.196;2022-07-18T12:27:23;5.05;;;2.58;;
57443;SDS011;43289;52.962;6.196;2022-07-18T12:32:56;5.40;;;2.92;;
57443;SDS011;43289;52.962;6.196;2022-07-18T12:35:25;6.00;;;2.80;;
57443;SDS011;43289;52.962;6.196;2022-07-18T12:40:18;6.55;;;3.38;;
57443;SDS011;43289;52.962;6.196;2022-07-18T12:42:44;4.82;;;2.58;;
57443;SDS011;43289;52.962;6.196;2022-07-18T12:45:10;6.00;;;3.03;;
57443;SDS011;43289;52.962;6.196;2022-07-18T12:47:37;4.10;;;2.33;;
57443;SDS011;43289;52.962;6.196;2022-07-18T12:50:04;5.53;;;3.00;;
57443;SDS011;43289;52.962;6.196;2022-07-18T12:52:30;5.32;;;2.78;;
57443;SDS011;43289;52.962;6.196;2022-07-18T12:54:56;6.78;;;3.10;;
57443;SDS011;43289;52.962;6.196;2022-07-18T12:57:22;5.22;;;2.50;;
57443;SDS011;43289;52.962;6.196;2022-07-18T12:59:48;5.68;;;2.97;;
57443;SDS011;43289;52.962;6.196;2022-07-18T13:02:15;6.15;;;3.13;;
57443;SDS011;43289;52.962;6.196;2022-07-18T13:04:41;4.97;;;3.08;;
57443;SDS011;43289;52.962;6.196;2022-07-18T13:07:07;5.45;;;3.10;;
57443;SDS011;43289;52.962;6.196;2022-07-18T13:09:33;6.00;;;2.60;;
57443;SDS011;43289;52.962;6.196;2022-07-18T13:11:59;5.45;;;3.15;;
57443;SDS011;43289;52.962;6.196;2022-07-18T13:14:26;6.20;;;2.80;;
57443;SDS011;43289;52.962;6.196;2022-07-18T13:16:52;7.72;;;3.28;;
57443;SDS011;43289;52.962;6.196;2022-07-18T13:19:18;5.75;;;3.30;;
57443;SDS011;43289;52.962;6.196;2022-07-18T13:21:45;7.20;;;2.95;;
57443;SDS011;43289;52.962;6.196;2022-07-18T13:24:11;6.70;;;2.78;;
57443;SDS011;43289;52.962;6.196;2022-07-18T13:26:37;5.00;;;3.10;;
57443;SDS011;43289;52.962;6.196;2022-07-18T13:29:04;5.13;;;2.83;;
57443;SDS011;43289;52.962;6.196;2022-07-18T13:31:31;4.47;;;2.70;;
57443;SDS011;43289;52.962;6.196;2022-07-18T13:33:57;5.70;;;2.80;;
57443;SDS011;43289;52.962;6.196;2022-07-18T13:36:23;6.78;;;3.20;;
57443;SDS011;43289;52.962;6.196;2022-07-18T13:38:49;5.50;;;3.00;;
57443;SDS011;43289;52.962;6.196;2022-07-18T13:41:15;5.55;;;2.78;;
57443;SDS011;43289;52.962;6.196;2022-07-18T13:43:41;5.10;;;2.70;;
57443;SDS011;43289;52.962;6.196;2022-07-18T13:46:08;6.35;;;3.03;;
57443;SDS011;43289;52.962;6.196;2022-07-18T13:48:34;5.88;;;3.08;;
57443;SDS011;43289;52.962;6.196;2022-07-18T13:51:07;4.80;;;3.15;;
57443;SDS011;43289;52.962;6.196;2022-07-18T13:53:33;5.78;;;3.40;;
57443;SDS011;43289;52.962;6.196;2022-07-18T13:55:59;7.72;;;3.08;;
57443;SDS011;43289;52.962;6.196;2022-07-18T13:58:25;6.45;;;3.03;;
57443;SDS011;43289;52.962;6.196;2022-07-18T14:00:51;4.45;;;3.10;;
57443;SDS011;43289;52.962;6.196;2022-07-18T14:03:17;7.00;;;3.30;;
57443;SDS011;43289;52.962;6.196;2022-07-18T14:05:43;4.95;;;3.17;;
57443;SDS011;43289;52.962;6.196;2022-07-18T14:08:09;5.35;;;3.30;;
57443;SDS011;43289;52.962;6.196;2022-07-18T14:10:42;6.47;;;3.38;;
57443;SDS011;43289;52.962;6.196;2022-07-18T14:13:09;7.00;;;3.43;;
57443;SDS011;43289;52.962;6.196;2022-07-18T14:15:34;5.13;;;3.22;;
57443;SDS011;43289;52.962;6.196;2022-07-18T14:20:58;8.52;;;3.50;;
57443;SDS011;43289;52.962;6.196;2022-07-18T14:23:24;6.57;;;2.70;;
57443;SDS011;43289;52.962;6.196;2022-07-18T14:28:46;4.38;;;2.75;;
57443;SDS011;43289;52.962;6.196;2022-07-18T14:31:13;5.82;;;3.17;;
57443;SDS011;43289;52.962;6.196;2022-07-18T14:36:34;6.90;;;3.03;;
57443;SDS011;43289;52.962;6.196;2022-07-18T14:39:00;8.80;;;3.15;;
57443;SDS011;43289;52.962;6.196;2022-07-18T14:44:22;7.22;;;3.28;;
57443;SDS011;43289;52.962;6.196;2022-07-18T14:46:49;6.43;;;3.17;;
57443;SDS011;43289;52.962;6.196;2022-07-18T14:49:14;6.00;;;2.72;;
57443;SDS011;43289;52.962;6.196;2022-07-18T14:51:40;4.65;;;2.90;;
57443;SDS011;43289;52.962;6.196;2022-07-18T14:54:06;6.72;;;2.88;;
57443;SDS011;43289;52.962;6.196;2022-07-18T14:56:33;6.63;;;3.22;;
57443;SDS011;43289;52.962;6.196;2022-07-18T14:58:58;5.05;;;3.10;;
57443;SDS011;43289;52.962;6.196;2022-07-18T15:01:24;6.35;;;2.80;;
57443;SDS011;43289;52.962;6.196;2022-07-18T15:03:50;5.82;;;2.55;;
57443;SDS011;43289;52.962;6.196;2022-07-18T15:06:18;5.00;;;2.75;;
57443;SDS011;43289;52.962;6.196;2022-07-18T15:11:19;4.95;;;2.65;;
57443;SDS011;43289;52.962;6.196;2022-07-18T15:13:52;10.25;;;3.35;;
57443;SDS011;43289;52.962;6.196;2022-07-18T15:16:24;6.15;;;2.88;;
57443;SDS011;43289;52.962;6.196;2022-07-18T15:18:59;4.47;;;2.60;;
57443;SDS011;43289;52.962;6.196;2022-07-18T15:21:25;4.78;;;2.72;;
57443;SDS011;43289;52.962;6.196;2022-07-18T15:23:50;4.57;;;2.88;;
57443;SDS011;43289;52.962;6.196;2022-07-18T15:26:16;5.07;;;3.00;;
57443;SDS011;43289;52.962;6.196;2022-07-18T15:28:42;6.25;;;2.53;;
57443;SDS011;43289;52.962;6.196;2022-07-18T15:33:53;5.45;;;3.10;;
57443;SDS011;43289;52.962;6.196;2022-07-18T15:36:20;6.45;;;3.08;;
57443;SDS011;43289;52.962;6.196;2022-07-18T15:38:46;6.38;;;2.90;;
57443;SDS011;43289;52.962;6.196;2022-07-18T15:41:11;7.45;;;2.95;;
57443;SDS011;43289;52.962;6.196;2022-07-18T15:43:37;5.15;;;3.00;;
57443;SDS011;43289;52.962;6.196;2022-07-18T15:46:05;6.18;;;2.85;;
57443;SDS011;43289;52.962;6.196;2022-07-18T15:48:31;6.30;;;2.60;;
57443;SDS011;43289;52.962;6.196;2022-07-18T15:50:57;5.97;;;2.60;;
57443;SDS011;43289;52.962;6.196;2022-07-18T15:53:22;6.82;;;3.20;;
57443;SDS011;43289;52.962;6.196;2022-07-18T15:55:48;5.15;;;2.95;;
57443;SDS011;43289;52.962;6.196;2022-07-18T15:58:14;7.32;;;3.10;;
57443;SDS011;43289;52.962;6.196;2022-07-18T16:00:39;6.10;;;2.92;;
57443;SDS011;43289;52.962;6.196;2022-07-18T16:03:06;5.75;;;3.05;;
57443;SDS011;43289;52.962;6.196;2022-07-18T16:05:31;4.80;;;2.40;;
57443;SDS011;43289;52.962;6.196;2022-07-18T16:07:57;4.97;;;2.60;;
57443;SDS011;43289;52.962;6.196;2022-07-18T16:10:28;5.35;;;2.65;;
57443;SDS011;43289;52.962;6.196;2022-07-18T16:12:54;5.85;;;2.90;;
57443;SDS011;43289;52.962;6.196;2022-07-18T16:18:01;5.05;;;3.00;;
57443;SDS011;43289;52.962;6.196;2022-07-18T16:20:27;5.93;;;2.60;;
57443;SDS011;43289;52.962;6.196;2022-07-18T16:23:10;7.30;;;2.90;;
57443;SDS011;43289;52.962;6.196;2022-07-18T16:25:36;5.68;;;2.78;;
57443;SDS011;43289;52.962;6.196;2022-07-18T16:28:03;5.93;;;2.65;;
57443;SDS011;43289;52.962;6.196;2022-07-18T16:30:28;6.50;;;3.10;;
57443;SDS011;43289;52.962;6.196;2022-07-18T16:32:54;8.48;;;2.88;;
57443;SDS011;43289;52.962;6.196;2022-07-18T16:35:21;4.68;;;2.88;;
57443;SDS011;43289;52.962;6.196;2022-07-18T16:37:47;5.63;;;2.90;;
57443;SDS011;43289;52.962;6.196;2022-07-18T16:40:14;4.57;;;2.67;;
57443;SDS011;43289;52.962;6.196;2022-07-18T16:42:40;6.47;;;2.72;;